sensor_id;sensor_type;location;lat;lon;timestamp;pressure;altitude;pressure_sealevel;temperature;humidity
5966;BME280;3009;43.224;27.976;2022-12-18T00:00:07;101044.66;;;11.17;80.29
5966;BME280;3009;43.224;27.976;2022-12-18T00:02:36;101048.22;;;11.12;80.51
5966;BME280;3009;43.224;27.976;2022-12-18T00:05:05;101038.47;;;11.03;81.17
5966;BME280;3009;43.224;27.976;2022-12-18T00:07:33;101041.31;;;10.92;81.46
5966;BME280;3009;43.224;27.976;2022-12-18T00:10:01;101049.78;;;10.99;80.58
5966;BME280;3009;43.224;27.976;2022-12-18T00:12:31;101051.88;;;11.03;80.19
5966;BME280;3009;43.224;27.976;2022-12-18T00:14:59;101058.44;;;10.77;81.23
5966;BME280;3009;43.224;27.976;2022-12-18T00:17:27;101062.16;;;10.81;81.48
5966;BME280;3009;43.224;27.976;2022-12-18T00:19:55;101057.44;;;10.73;81.95
5966;BME280;3009;43.224;27.976;2022-12-18T00:22:23;101068.53;;;10.86;81.03
5966;BME280;3009;43.224;27.976;2022-12-18T00:24:51;101077.31;;;10.72;81.63
5966;BME280;3009;43.224;27.976;2022-12-18T00:27:20;101089.13;;;10.71;81.45
5966;BME280;3009;43.224;27.976;2022-12-18T00:29:49;101085.41;;;10.67;81.67
5966;BME280;3009;43.224;27.976;2022-12-18T00:32:17;101087.03;;;10.68;81.55
5966;BME280;3009;43.224;27.976;2022-12-18T00:34:45;101095.06;;;10.68;81.10
5966;BME280;3009;43.224;27.976;2022-12-18T00:37:14;101106.66;;;10.63;81.19
5966;BME280;3009;43.224;27.976;2022-12-18T00:39:48;101117.41;;;10.63;81.32
5966;BME280;3009;43.224;27.976;2022-12-18T00:42:16;101120.56;;;10.66;81.19
5966;BME280;3009;43.224;27.976;2022-12-18T00:45:04;101123.78;;;10.68;80.96
5966;BME280;3009;43.224;27.976;2022-12-18T00:47:38;101130.03;;;10.63;80.74
5966;BME280;3009;43.224;27.976;2022-12-18T00:50:08;101116.16;;;10.56;80.77
5966;BME280;3009;43.224;27.976;2022-12-18T00:52:36;101117.25;;;10.55;80.73
5966;BME280;3009;43.224;27.976;2022-12-18T00:55:05;101123.72;;;10.54;80.52
5966;BME280;3009;43.224;27.976;2022-12-18T00:57:33;101136.53;;;10.57;80.56
5966;BME280;3009;43.224;27.976;2022-12-18T01:00:03;101132.84;;;10.53;80.44
5966;BME280;3009;43.224;27.976;2022-12-18T01:02:32;101147.09;;;10.48;80.77
5966;BME280;3009;43.224;27.976;2022-12-18T01:05:00;101149.25;;;10.46;80.60
5966;BME280;3009;43.224;27.976;2022-12-18T01:07:29;101154.03;;;10.49;80.77
5966;BME280;3009;43.224;27.976;2022-12-18T01:09:57;101157.59;;;10.44;80.91
5966;BME280;3009;43.224;27.976;2022-12-18T01:12:25;101149.34;;;10.41;81.13
5966;BME280;3009;43.224;27.976;2022-12-18T01:14:53;101150.78;;;10.28;81.87
5966;BME280;3009;43.224;27.976;2022-12-18T01:17:23;101151.94;;;10.22;82.19
5966;BME280;3009;43.224;27.976;2022-12-18T01:19:51;101151.22;;;10.16;82.74
5966;BME280;3009;43.224;27.976;2022-12-18T01:22:19;101157.16;;;10.13;82.88
5966;BME280;3009;43.224;27.976;2022-12-18T01:24:48;101155.47;;;10.17;82.71
5966;BME280;3009;43.224;27.976;2022-12-18T01:27:16;101166.75;;;10.14;82.67
5966;BME280;3009;43.224;27.976;2022-12-18T01:29:44;101171.84;;;10.16;82.67
5966;BME280;3009;43.224;27.976;2022-12-18T01:32:12;101166.19;;;10.17;82.81
5966;BME280;3009;43.224;27.976;2022-12-18T01:34:42;101147.31;;;10.03;82.82
5966;BME280;3009;43.224;27.976;2022-12-18T01:37:10;101157.00;;;9.99;83.18
5966;BME280;3009;43.224;27.976;2022-12-18T01:39:38;101165.97;;;9.89;83.48
5966;BME280;3009;43.224;27.976;2022-12-18T01:42:11;101158.69;;;9.95;83.54
5966;BME280;3009;43.224;27.976;2022-12-18T01:44:59;101167.56;;;9.90;83.89
5966;BME280;3009;43.224;27.976;2022-12-18T01:47:30;101175.53;;;9.96;84.03
5966;BME280;3009;43.224;27.976;2022-12-18T01:50:05;101173.22;;;9.89;84.43
5966;BME280;3009;43.224;27.976;2022-12-18T01:52:35;101178.03;;;9.87;84.53
5966;BME280;3009;43.224;27.976;2022-12-18T01:55:06;101180.44;;;9.88;85.01
5966;BME280;3009;43.224;27.976;2022-12-18T01:57:35;101193.59;;;9.85;84.94
5966;BME280;3009;43.224;27.976;2022-12-18T02:00:07;101196.00;;;9.86;85.34
5966;BME280;3009;43.224;27.976;2022-12-18T02:02:36;101191.81;;;9.75;86.06
5966;BME280;3009;43.224;27.976;2022-12-18T02:05:07;101181.38;;;9.73;85.62
5966;BME280;3009;43.224;27.976;2022-12-18T02:07:42;101186.22;;;9.71;85.67
5966;BME280;3009;43.224;27.976;2022-12-18T02:10:19;101187.78;;;9.78;85.53
5966;BME280;3009;43.224;27.976;2022-12-18T02:12:52;101182.19;;;9.74;84.07
5966;BME280;3009;43.224;27.976;2022-12-18T02:15:26;101179.25;;;9.70;84.06
5966;BME280;3009;43.224;27.976;2022-12-18T02:18:05;101192.91;;;9.74;83.89
5966;BME280;3009;43.224;27.976;2022-12-18T02:20:39;101198.81;;;9.71;84.72
5966;BME280;3009;43.224;27.976;2022-12-18T02:23:21;101189.47;;;9.68;85.05
5966;BME280;3009;43.224;27.976;2022-12-18T02:26:06;101196.44;;;9.64;85.72
5966;BME280;3009;43.224;27.976;2022-12-18T02:28:38;101190.59;;;9.62;84.42
5966;BME280;3009;43.224;27.976;2022-12-18T02:31:11;101195.59;;;9.69;83.20
5966;BME280;3009;43.224;27.976;2022-12-18T02:33:43;101203.41;;;9.65;83.53
5966;BME280;3009;43.224;27.976;2022-12-18T02:36:13;101208.25;;;9.63;83.79
5966;BME280;3009;43.224;27.976;2022-12-18T02:38:44;101223.50;;;9.63;83.75
5966;BME280;3009;43.224;27.976;2022-12-18T02:41:15;101228.63;;;9.59;84.14
5966;BME280;3009;43.224;27.976;2022-12-18T02:43:47;101236.41;;;9.55;83.62
5966;BME280;3009;43.224;27.976;2022-12-18T02:46:33;101230.22;;;9.60;82.84
5966;BME280;3009;43.224;27.976;2022-12-18T02:49:09;101233.38;;;9.67;82.68
5966;BME280;3009;43.224;27.976;2022-12-18T02:51:47;101240.06;;;9.70;82.49
5966;BME280;3009;43.224;27.976;2022-12-18T02:54:26;101251.25;;;9.77;82.23
5966;BME280;3009;43.224;27.976;2022-12-18T02:57:05;101258.47;;;9.76;81.65
5966;BME280;3009;43.224;27.976;2022-12-18T02:59:41;101252.59;;;9.74;81.12
5966;BME280;3009;43.224;27.976;2022-12-18T03:02:19;101255.50;;;9.83;80.64
5966;BME280;3009;43.224;27.976;2022-12-18T03:04:55;101242.47;;;9.71;80.30
5966;BME280;3009;43.224;27.976;2022-12-18T03:07:35;101237.16;;;9.66;80.04
5966;BME280;3009;43.224;27.976;2022-12-18T03:10:08;101245.13;;;9.71;79.53
5966;BME280;3009;43.224;27.976;2022-12-18T03:12:44;101254.31;;;9.60;80.35
5966;BME280;3009;43.224;27.976;2022-12-18T03:15:16;101260.28;;;9.52;80.77
5966;BME280;3009;43.224;27.976;2022-12-18T03:17:51;101262.16;;;9.51;81.57
5966;BME280;3009;43.224;27.976;2022-12-18T03:20:22;101246.66;;;9.48;81.58
5966;BME280;3009;43.224;27.976;2022-12-18T03:22:54;101250.63;;;9.56;81.77
5966;BME280;3009;43.224;27.976;2022-12-18T03:25:25;101250.41;;;9.47;82.07
5966;BME280;3009;43.224;27.976;2022-12-18T03:27:56;101244.44;;;9.55;82.25
5966;BME280;3009;43.224;27.976;2022-12-18T03:30:28;101255.13;;;9.61;82.33
5966;BME280;3009;43.224;27.976;2022-12-18T03:33:02;101257.84;;;9.55;80.30
5966;BME280;3009;43.224;27.976;2022-12-18T03:35:36;101265.69;;;9.47;80.19
5966;BME280;3009;43.224;27.976;2022-12-18T03:38:06;101262.91;;;9.57;80.79
5966;BME280;3009;43.224;27.976;2022-12-18T03:40:42;101260.72;;;9.64;81.18
5966;BME280;3009;43.224;27.976;2022-12-18T03:43:19;101263.66;;;9.68;80.96
5966;BME280;3009;43.224;27.976;2022-12-18T03:45:53;101279.16;;;9.71;81.14
5966;BME280;3009;43.224;27.976;2022-12-18T03:48:28;101278.69;;;9.58;78.70
5966;BME280;3009;43.224;27.976;2022-12-18T03:51:01;101283.78;;;9.60;80.03
5966;BME280;3009;43.224;27.976;2022-12-18T03:53:36;101290.78;;;9.51;80.30
5966;BME280;3009;43.224;27.976;2022-12-18T03:56:09;101288.63;;;9.58;80.65
5966;BME280;3009;43.224;27.976;2022-12-18T03:58:40;101289.78;;;9.47;80.11
5966;BME280;3009;43.224;27.976;2022-12-18T04:01:13;101302.34;;;9.46;79.14
5966;BME280;3009;43.224;27.976;2022-12-18T04:03:44;101317.06;;;9.49;78.07
5966;BME280;3009;43.224;27.976;2022-12-18T04:06:15;101326.72;;;9.45;77.60
5966;BME280;3009;43.224;27.976;2022-12-18T04:08:44;101346.50;;;9.49;77.66
5966;BME280;3009;43.224;27.976;2022-12-18T04:11:13;101349.22;;;9.44;78.13
5966;BME280;3009;43.224;27.976;2022-12-18T04:13:44;101349.31;;;9.23;78.07
5966;BME280;3009;43.224;27.976;2022-12-18T04:16:12;101364.81;;;9.26;78.40
5966;BME280;3009;43.224;27.976;2022-12-18T04:18:40;101361.88;;;9.28;78.43
5966;BME280;3009;43.224;27.976;2022-12-18T04:21:10;101367.81;;;9.14;77.71
5966;BME280;3009;43.224;27.976;2022-12-18T04:23:38;101365.69;;;9.06;79.09
5966;BME280;3009;43.224;27.976;2022-12-18T04:26:07;101385.47;;;9.15;78.03
5966;BME280;3009;43.224;27.976;2022-12-18T04:28:35;101391.09;;;9.14;79.38
5966;BME280;3009;43.224;27.976;2022-12-18T04:31:04;101390.31;;;8.98;78.73
5966;BME280;3009;43.224;27.976;2022-12-18T04:33:35;101400.25;;;8.87;78.92
5966;BME280;3009;43.224;27.976;2022-12-18T04:36:04;101395.41;;;8.89;79.36
5966;BME280;3009;43.224;27.976;2022-12-18T04:38:33;101401.84;;;8.93;77.94
5966;BME280;3009;43.224;27.976;2022-12-18T04:41:01;101398.63;;;8.96;76.14
5966;BME280;3009;43.224;27.976;2022-12-18T04:43:30;101415.22;;;8.93;76.65
5966;BME280;3009;43.224;27.976;2022-12-18T04:46:05;101420.88;;;8.71;77.14
5966;BME280;3009;43.224;27.976;2022-12-18T04:48:34;101421.69;;;8.56;78.28
5966;BME280;3009;43.224;27.976;2022-12-18T04:51:03;101425.44;;;8.55;77.97
5966;BME280;3009;43.224;27.976;2022-12-18T04:53:31;101419.53;;;8.48;76.34
5966;BME280;3009;43.224;27.976;2022-12-18T04:56:04;101424.59;;;8.34;76.51
5966;BME280;3009;43.224;27.976;2022-12-18T04:58:33;101433.97;;;8.37;77.64
5966;BME280;3009;43.224;27.976;2022-12-18T05:01:01;101431.56;;;8.45;77.56
5966;BME280;3009;43.224;27.976;2022-12-18T05:03:31;101444.13;;;8.40;75.02
5966;BME280;3009;43.224;27.976;2022-12-18T05:06:00;101449.97;;;8.21;74.80
5966;BME280;3009;43.224;27.976;2022-12-18T05:08:28;101462.25;;;8.17;75.73
5966;BME280;3009;43.224;27.976;2022-12-18T05:11:00;101464.38;;;8.15;75.99
5966;BME280;3009;43.224;27.976;2022-12-18T05:13:28;101472.38;;;7.99;77.31
5966;BME280;3009;43.224;27.976;2022-12-18T05:15:57;101472.63;;;7.93;78.88
5966;BME280;3009;43.224;27.976;2022-12-18T05:18:26;101479.72;;;7.67;80.33
5966;BME280;3009;43.224;27.976;2022-12-18T05:20:56;101488.81;;;7.71;81.12
5966;BME280;3009;43.224;27.976;2022-12-18T05:23:25;101490.66;;;7.60;81.63
5966;BME280;3009;43.224;27.976;2022-12-18T05:25:54;101486.69;;;7.68;80.40
5966;BME280;3009;43.224;27.976;2022-12-18T05:28:24;101498.88;;;7.48;81.43
5966;BME280;3009;43.224;27.976;2022-12-18T05:30:54;101494.41;;;7.64;79.69
5966;BME280;3009;43.224;27.976;2022-12-18T05:33:25;101512.41;;;7.36;80.04
5966;BME280;3009;43.224;27.976;2022-12-18T05:35:57;101515.84;;;7.32;80.81
5966;BME280;3009;43.224;27.976;2022-12-18T05:38:26;101528.66;;;7.30;80.43
5966;BME280;3009;43.224;27.976;2022-12-18T05:40:55;101529.53;;;7.03;81.87
5966;BME280;3009;43.224;27.976;2022-12-18T05:43:25;101532.00;;;7.15;80.53
5966;BME280;3009;43.224;27.976;2022-12-18T05:45:54;101543.38;;;7.00;80.71
5966;BME280;3009;43.224;27.976;2022-12-18T05:48:23;101554.00;;;6.95;79.54
5966;BME280;3009;43.224;27.976;2022-12-18T05:50:52;101560.53;;;6.82;79.89
5966;BME280;3009;43.224;27.976;2022-12-18T05:53:21;101568.69;;;6.70;80.81
5966;BME280;3009;43.224;27.976;2022-12-18T05:55:49;101567.19;;;6.79;80.19
5966;BME280;3009;43.224;27.976;2022-12-18T05:58:18;101575.78;;;6.86;79.92
5966;BME280;3009;43.224;27.976;2022-12-18T06:00:46;101580.34;;;6.91;79.73
5966;BME280;3009;43.224;27.976;2022-12-18T06:03:15;101582.41;;;6.56;81.12
5966;BME280;3009;43.224;27.976;2022-12-18T06:05:44;101586.41;;;6.54;80.10
5966;BME280;3009;43.224;27.976;2022-12-18T06:08:13;101595.03;;;6.39;80.21
5966;BME280;3009;43.224;27.976;2022-12-18T06:10:50;101618.28;;;6.44;80.84
5966;BME280;3009;43.224;27.976;2022-12-18T06:13:19;101626.81;;;6.46;79.82
5966;BME280;3009;43.224;27.976;2022-12-18T06:15:48;101623.28;;;6.40;80.54
5966;BME280;3009;43.224;27.976;2022-12-18T06:18:16;101634.00;;;6.45;80.14
5966;BME280;3009;43.224;27.976;2022-12-18T06:20:44;101648.44;;;6.49;80.62
5966;BME280;3009;43.224;27.976;2022-12-18T06:23:12;101658.91;;;6.56;80.32
5966;BME280;3009;43.224;27.976;2022-12-18T06:25:40;101671.22;;;6.40;80.29
5966;BME280;3009;43.224;27.976;2022-12-18T06:28:10;101677.44;;;6.24;81.68
5966;BME280;3009;43.224;27.976;2022-12-18T06:30:38;101693.56;;;6.17;82.04
5966;BME280;3009;43.224;27.976;2022-12-18T06:33:07;101699.81;;;6.06;83.09
5966;BME280;3009;43.224;27.976;2022-12-18T06:35:35;101708.19;;;6.14;82.76
5966;BME280;3009;43.224;27.976;2022-12-18T06:38:03;101719.38;;;6.33;82.24
5966;BME280;3009;43.224;27.976;2022-12-18T06:40:31;101710.03;;;6.14;82.60
5966;BME280;3009;43.224;27.976;2022-12-18T06:43:00;101711.34;;;6.11;82.39
5966;BME280;3009;43.224;27.976;2022-12-18T06:45:29;101716.91;;;6.10;82.57
5966;BME280;3009;43.224;27.976;2022-12-18T06:47:58;101726.22;;;6.07;83.31
5966;BME280;3009;43.224;27.976;2022-12-18T06:50:26;101725.63;;;6.05;83.04
5966;BME280;3009;43.224;27.976;2022-12-18T06:52:54;101722.13;;;6.21;82.23
5966;BME280;3009;43.224;27.976;2022-12-18T06:55:23;101724.81;;;6.21;82.15
5966;BME280;3009;43.224;27.976;2022-12-18T06:57:51;101715.69;;;6.17;82.48
5966;BME280;3009;43.224;27.976;2022-12-18T07:00:19;101721.97;;;6.11;82.62
5966;BME280;3009;43.224;27.976;2022-12-18T07:02:49;101731.53;;;6.07;82.85
5966;BME280;3009;43.224;27.976;2022-12-18T07:05:17;101742.19;;;6.07;82.88
5966;BME280;3009;43.224;27.976;2022-12-18T07:07:45;101728.94;;;6.12;83.27
5966;BME280;3009;43.224;27.976;2022-12-18T07:10:13;101728.84;;;6.24;82.51
5966;BME280;3009;43.224;27.976;2022-12-18T07:12:41;101737.28;;;6.38;82.24
5966;BME280;3009;43.224;27.976;2022-12-18T07:15:10;101730.81;;;6.34;82.22
5966;BME280;3009;43.224;27.976;2022-12-18T07:17:38;101747.28;;;6.31;82.45
5966;BME280;3009;43.224;27.976;2022-12-18T07:20:09;101745.72;;;6.30;82.29
5966;BME280;3009;43.224;27.976;2022-12-18T07:22:38;101752.38;;;6.32;82.58
5966;BME280;3009;43.224;27.976;2022-12-18T07:25:07;101756.56;;;6.45;81.72
5966;BME280;3009;43.224;27.976;2022-12-18T07:27:35;101756.13;;;6.53;81.38
5966;BME280;3009;43.224;27.976;2022-12-18T07:30:04;101754.09;;;6.61;81.41
5966;BME280;3009;43.224;27.976;2022-12-18T07:32:34;101752.91;;;6.51;81.44
5966;BME280;3009;43.224;27.976;2022-12-18T07:35:03;101760.91;;;6.51;81.36
5966;BME280;3009;43.224;27.976;2022-12-18T07:37:32;101754.94;;;6.44;82.10
5966;BME280;3009;43.224;27.976;2022-12-18T07:40:01;101759.53;;;6.49;81.34
5966;BME280;3009;43.224;27.976;2022-12-18T07:42:30;101746.53;;;6.52;81.59
5966;BME280;3009;43.224;27.976;2022-12-18T07:44:58;101754.84;;;6.56;81.19
5966;BME280;3009;43.224;27.976;2022-12-18T07:47:34;101756.47;;;6.57;81.61
5966;BME280;3009;43.224;27.976;2022-12-18T07:50:03;101758.94;;;6.25;82.97
5966;BME280;3009;43.224;27.976;2022-12-18T07:52:32;101762.19;;;6.27;83.40
5966;BME280;3009;43.224;27.976;2022-12-18T07:55:01;101767.41;;;6.21;83.74
5966;BME280;3009;43.224;27.976;2022-12-18T07:57:30;101766.53;;;6.33;83.03
5966;BME280;3009;43.224;27.976;2022-12-18T08:00:18;101770.66;;;6.24;83.68
5966;BME280;3009;43.224;27.976;2022-12-18T08:02:47;101771.38;;;6.19;84.51
5966;BME280;3009;43.224;27.976;2022-12-18T08:05:15;101771.53;;;6.12;84.49
5966;BME280;3009;43.224;27.976;2022-12-18T08:07:45;101783.16;;;6.23;84.70
5966;BME280;3009;43.224;27.976;2022-12-18T08:10:13;101776.94;;;6.34;84.23
5966;BME280;3009;43.224;27.976;2022-12-18T08:12:41;101786.03;;;6.38;83.83
5966;BME280;3009;43.224;27.976;2022-12-18T08:15:10;101771.31;;;6.53;83.34
5966;BME280;3009;43.224;27.976;2022-12-18T08:17:38;101783.47;;;6.27;84.05
5966;BME280;3009;43.224;27.976;2022-12-18T08:20:08;101784.25;;;6.44;83.02
5966;BME280;3009;43.224;27.976;2022-12-18T08:22:36;101772.69;;;6.55;82.64
5966;BME280;3009;43.224;27.976;2022-12-18T08:25:07;101773.63;;;6.66;82.04
5966;BME280;3009;43.224;27.976;2022-12-18T08:27:35;101786.25;;;6.54;83.07
5966;BME280;3009;43.224;27.976;2022-12-18T08:30:04;101789.78;;;6.60;83.27
5966;BME280;3009;43.224;27.976;2022-12-18T08:32:33;101779.84;;;6.72;82.38
5966;BME280;3009;43.224;27.976;2022-12-18T08:35:01;101779.84;;;6.72;82.59
5966;BME280;3009;43.224;27.976;2022-12-18T08:37:29;101778.47;;;6.69;82.84
5966;BME280;3009;43.224;27.976;2022-12-18T08:39:57;101775.56;;;6.71;82.37
5966;BME280;3009;43.224;27.976;2022-12-18T08:42:27;101769.22;;;6.77;82.71
5966;BME280;3009;43.224;27.976;2022-12-18T08:45:13;101781.00;;;6.59;83.47
5966;BME280;3009;43.224;27.976;2022-12-18T08:47:42;101786.16;;;6.66;82.91
5966;BME280;3009;43.224;27.976;2022-12-18T08:50:10;101788.53;;;6.84;82.39
5966;BME280;3009;43.224;27.976;2022-12-18T08:52:39;101792.03;;;6.68;83.85
5966;BME280;3009;43.224;27.976;2022-12-18T08:55:08;101787.94;;;6.60;83.80
5966;BME280;3009;43.224;27.976;2022-12-18T08:57:38;101789.53;;;6.61;83.59
5966;BME280;3009;43.224;27.976;2022-12-18T09:00:07;101789.53;;;6.61;84.51
5966;BME280;3009;43.224;27.976;2022-12-18T09:02:36;101794.75;;;6.73;84.22
5966;BME280;3009;43.224;27.976;2022-12-18T09:05:05;101781.94;;;6.70;83.97
5966;BME280;3009;43.224;27.976;2022-12-18T09:07:33;101797.50;;;6.78;83.56
5966;BME280;3009;43.224;27.976;2022-12-18T09:10:01;101791.25;;;6.67;83.62
5966;BME280;3009;43.224;27.976;2022-12-18T09:12:30;101788.81;;;6.66;83.48
5966;BME280;3009;43.224;27.976;2022-12-18T09:14:59;101787.13;;;6.60;83.51
5966;BME280;3009;43.224;27.976;2022-12-18T09:17:27;101785.38;;;6.48;84.21
5966;BME280;3009;43.224;27.976;2022-12-18T09:19:56;101786.66;;;6.46;83.52
5966;BME280;3009;43.224;27.976;2022-12-18T09:22:24;101775.22;;;6.45;84.13
5966;BME280;3009;43.224;27.976;2022-12-18T09:24:52;101786.81;;;6.56;83.75
5966;BME280;3009;43.224;27.976;2022-12-18T09:27:20;101804.88;;;6.71;83.85
5966;BME280;3009;43.224;27.976;2022-12-18T09:29:49;101800.22;;;6.83;82.72
5966;BME280;3009;43.224;27.976;2022-12-18T09:32:20;101791.06;;;6.74;82.66
5966;BME280;3009;43.224;27.976;2022-12-18T09:34:48;101794.47;;;6.69;83.35
5966;BME280;3009;43.224;27.976;2022-12-18T09:37:16;101789.19;;;6.74;82.75
5966;BME280;3009;43.224;27.976;2022-12-18T09:39:45;101796.88;;;6.71;82.35
5966;BME280;3009;43.224;27.976;2022-12-18T09:42:19;101791.53;;;6.71;82.56
5966;BME280;3009;43.224;27.976;2022-12-18T09:44:50;101797.03;;;6.42;84.20
5966;BME280;3009;43.224;27.976;2022-12-18T09:47:23;101799.59;;;6.76;82.65
5966;BME280;3009;43.224;27.976;2022-12-18T09:49:56;101794.72;;;6.68;83.72
5966;BME280;3009;43.224;27.976;2022-12-18T09:52:28;101813.28;;;6.63;83.36
5966;BME280;3009;43.224;27.976;2022-12-18T09:55:03;101798.47;;;6.50;83.57
5966;BME280;3009;43.224;27.976;2022-12-18T09:57:35;101789.28;;;6.63;82.62
5966;BME280;3009;43.224;27.976;2022-12-18T10:00:15;101789.88;;;6.65;82.24
5966;BME280;3009;43.224;27.976;2022-12-18T10:02:45;101786.25;;;6.54;83.22
5966;BME280;3009;43.224;27.976;2022-12-18T10:05:17;101790.41;;;6.67;82.16
5966;BME280;3009;43.224;27.976;2022-12-18T10:07:53;101788.94;;;6.76;81.94
5966;BME280;3009;43.224;27.976;2022-12-18T10:10:29;101786.84;;;6.78;81.85
5966;BME280;3009;43.224;27.976;2022-12-18T10:13:07;101788.06;;;6.92;81.94
5966;BME280;3009;43.224;27.976;2022-12-18T10:15:43;101790.81;;;6.98;81.27
5966;BME280;3009;43.224;27.976;2022-12-18T10:18:22;101787.94;;;6.82;81.48
5966;BME280;3009;43.224;27.976;2022-12-18T10:20:57;101787.81;;;6.94;81.21
5966;BME280;3009;43.224;27.976;2022-12-18T10:23:33;101787.63;;;6.79;81.59
5966;BME280;3009;43.224;27.976;2022-12-18T10:26:13;101792.84;;;6.68;82.14
5966;BME280;3009;43.224;27.976;2022-12-18T10:28:43;101802.84;;;6.78;82.24
5966;BME280;3009;43.224;27.976;2022-12-18T10:31:15;101803.06;;;6.99;80.46
5966;BME280;3009;43.224;27.976;2022-12-18T10:33:46;101796.56;;;6.89;81.02
5966;BME280;3009;43.224;27.976;2022-12-18T10:36:14;101799.78;;;7.14;80.76
5966;BME280;3009;43.224;27.976;2022-12-18T10:38:43;101797.94;;;7.14;80.52
5966;BME280;3009;43.224;27.976;2022-12-18T10:41:24;101807.19;;;6.84;81.46
5966;BME280;3009;43.224;27.976;2022-12-18T10:44:16;101803.34;;;6.75;81.74
5966;BME280;3009;43.224;27.976;2022-12-18T10:46:45;101820.06;;;6.70;82.26
5966;BME280;3009;43.224;27.976;2022-12-18T10:49:24;101812.00;;;6.65;82.49
5966;BME280;3009;43.224;27.976;2022-12-18T10:52:05;101813.66;;;6.49;83.20
5966;BME280;3009;43.224;27.976;2022-12-18T10:54:36;101821.50;;;6.78;82.11
5966;BME280;3009;43.224;27.976;2022-12-18T10:57:28;101815.72;;;6.47;83.60
5966;BME280;3009;43.224;27.976;2022-12-18T10:59:58;101832.81;;;6.68;82.14
5966;BME280;3009;43.224;27.976;2022-12-18T11:02:33;101819.09;;;6.77;82.76
5966;BME280;3009;43.224;27.976;2022-12-18T11:05:07;101831.41;;;7.05;81.77
5966;BME280;3009;43.224;27.976;2022-12-18T11:07:51;101828.50;;;7.06;81.58
5966;BME280;3009;43.224;27.976;2022-12-18T11:10:22;101831.91;;;7.02;81.33
5966;BME280;3009;43.224;27.976;2022-12-18T11:12:52;101842.53;;;6.97;82.22
5966;BME280;3009;43.224;27.976;2022-12-18T11:15:24;101842.44;;;6.69;83.35
5966;BME280;3009;43.224;27.976;2022-12-18T11:17:54;101850.25;;;6.76;83.15
5966;BME280;3009;43.224;27.976;2022-12-18T11:20:32;101848.66;;;6.75;83.97
5966;BME280;3009;43.224;27.976;2022-12-18T11:23:04;101842.41;;;6.86;83.47
5966;BME280;3009;43.224;27.976;2022-12-18T11:25:33;101849.09;;;6.89;82.91
5966;BME280;3009;43.224;27.976;2022-12-18T11:28:03;101859.31;;;6.58;84.75
5966;BME280;3009;43.224;27.976;2022-12-18T11:30:34;101863.53;;;6.54;85.45
5966;BME280;3009;43.224;27.976;2022-12-18T11:33:04;101864.50;;;6.65;84.88
5966;BME280;3009;43.224;27.976;2022-12-18T11:35:42;101863.03;;;6.74;83.97
5966;BME280;3009;43.224;27.976;2022-12-18T11:38:19;101861.69;;;6.54;84.96
5966;BME280;3009;43.224;27.976;2022-12-18T11:40:53;101857.88;;;6.50;85.62
5966;BME280;3009;43.224;27.976;2022-12-18T11:43:27;101857.72;;;6.57;85.15
5966;BME280;3009;43.224;27.976;2022-12-18T11:46:02;101860.53;;;6.67;84.50
5966;BME280;3009;43.224;27.976;2022-12-18T11:48:35;101868.38;;;6.40;85.63
5966;BME280;3009;43.224;27.976;2022-12-18T11:51:12;101872.75;;;6.46;85.83
5966;BME280;3009;43.224;27.976;2022-12-18T11:53:42;101862.88;;;6.64;85.51
5966;BME280;3009;43.224;27.976;2022-12-18T11:56:26;101862.38;;;6.67;85.13
5966;BME280;3009;43.224;27.976;2022-12-18T11:59:04;101858.06;;;6.44;86.71
5966;BME280;3009;43.224;27.976;2022-12-18T12:01:43;101859.09;;;6.43;85.98
5966;BME280;3009;43.224;27.976;2022-12-18T12:04:36;101863.88;;;6.41;85.58
5966;BME280;3009;43.224;27.976;2022-12-18T12:07:16;101872.00;;;6.34;85.91
5966;BME280;3009;43.224;27.976;2022-12-18T12:09:55;101870.97;;;6.35;86.20
5966;BME280;3009;43.224;27.976;2022-12-18T12:12:33;101872.41;;;6.60;84.95
5966;BME280;3009;43.224;27.976;2022-12-18T12:15:22;101893.56;;;6.66;84.61
5966;BME280;3009;43.224;27.976;2022-12-18T12:17:57;101895.59;;;6.42;84.78
5966;BME280;3009;43.224;27.976;2022-12-18T12:20:48;101903.66;;;6.64;84.92
5966;BME280;3009;43.224;27.976;2022-12-18T12:23:29;101912.28;;;6.71;84.57
5966;BME280;3009;43.224;27.976;2022-12-18T12:26:06;101915.78;;;6.72;83.25
5966;BME280;3009;43.224;27.976;2022-12-18T12:28:52;101921.13;;;6.72;82.36
5966;BME280;3009;43.224;27.976;2022-12-18T12:31:34;101928.94;;;6.62;82.49
5966;BME280;3009;43.224;27.976;2022-12-18T12:34:16;101920.78;;;6.68;80.92
5966;BME280;3009;43.224;27.976;2022-12-18T12:36:56;101940.56;;;6.72;80.48
5966;BME280;3009;43.224;27.976;2022-12-18T12:39:36;101924.75;;;6.49;81.56
5966;BME280;3009;43.224;27.976;2022-12-18T12:42:11;101925.16;;;6.57;80.76
5966;BME280;3009;43.224;27.976;2022-12-18T12:45:00;101928.22;;;6.49;80.25
5966;BME280;3009;43.224;27.976;2022-12-18T12:47:37;101942.09;;;6.51;79.33
5966;BME280;3009;43.224;27.976;2022-12-18T12:50:13;101946.47;;;6.41;74.97
5966;BME280;3009;43.224;27.976;2022-12-18T12:52:45;101947.72;;;6.21;74.97
5966;BME280;3009;43.224;27.976;2022-12-18T12:55:18;101963.91;;;6.31;74.40
5966;BME280;3009;43.224;27.976;2022-12-18T12:57:57;101975.41;;;6.20;72.43
5966;BME280;3009;43.224;27.976;2022-12-18T13:00:31;101989.53;;;6.20;70.78
5966;BME280;3009;43.224;27.976;2022-12-18T13:03:12;101984.25;;;6.09;71.15
5966;BME280;3009;43.224;27.976;2022-12-18T13:05:48;101971.09;;;5.90;70.98
5966;BME280;3009;43.224;27.976;2022-12-18T13:08:24;101975.59;;;5.90;71.10
5966;BME280;3009;43.224;27.976;2022-12-18T13:10:59;101973.97;;;5.89;71.07
5966;BME280;3009;43.224;27.976;2022-12-18T13:13:49;101976.78;;;5.82;70.59
5966;BME280;3009;43.224;27.976;2022-12-18T13:16:19;101988.16;;;5.77;69.65
5966;BME280;3009;43.224;27.976;2022-12-18T13:18:49;101976.72;;;5.65;68.36
5966;BME280;3009;43.224;27.976;2022-12-18T13:21:22;101971.88;;;5.62;68.74
5966;BME280;3009;43.224;27.976;2022-12-18T13:23:51;101988.19;;;5.65;68.84
5966;BME280;3009;43.224;27.976;2022-12-18T13:26:31;101993.88;;;5.57;69.01
5966;BME280;3009;43.224;27.976;2022-12-18T13:29:01;101998.72;;;5.60;68.15
5966;BME280;3009;43.224;27.976;2022-12-18T13:34:35;102002.41;;;5.59;68.14
5966;BME280;3009;43.224;27.976;2022-12-18T13:43:37;101997.47;;;5.39;68.73